sensor_id;sensor_type;location;lat;lon;timestamp;P1;durP1;ratioP1;P2;durP2;ratioP2
9128;SDS011;4599;50.906;6.786;2023-11-21T00:02:36;14.57;;;10.47;;
9128;SDS011;4599;50.906;6.786;2023-11-21T00:06:39;15.40;;;10.23;;
9128;SDS011;4599;50.906;6.786;2023-11-21T00:10:41;12.97;;;9.83;;
9128;SDS011;4599;50.906;6.786;2023-11-21T00:14:42;17.63;;;10.87;;
9128;SDS011;4599;50.906;6.786;2023-11-21T00:18:44;30.63;;;12.47;;
9128;SDS011;4599;50.906;6.786;2023-11-21T00:22:47;33.50;;;14.67;;
9128;SDS011;4599;50.906;6.786;2023-11-21T00:26:49;34.07;;;15.40;;
9128;SDS011;4599;50.906;6.786;2023-11-21T00:30:50;33.83;;;16.47;;
9128;SDS011;4599;50.906;6.786;2023-11-21T00:34:52;28.60;;;16.13;;
9128;SDS011;4599;50.906;6.786;2023-11-21T00:38:55;31.77;;;16.30;;
9128;SDS011;4599;50.906;6.786;2023-11-21T00:42:56;30.20;;;16.00;;
9128;SDS011;4599;50.906;6.786;2023-11-21T00:46:58;26.63;;;17.83;;
9128;SDS011;4599;50.906;6.786;2023-11-21T00:50:59;30.33;;;16.53;;
9128;SDS011;4599;50.906;6.786;2023-11-21T00:55:02;23.93;;;14.23;;
9128;SDS011;4599;50.906;6.786;2023-11-21T00:59:04;22.87;;;13.47;;
9128;SDS011;4599;50.906;6.786;2023-11-21T01:03:06;16.43;;;12.83;;
9128;SDS011;4599;50.906;6.786;2023-11-21T01:07:07;16.77;;;12.43;;
9128;SDS011;4599;50.906;6.786;2023-11-21T01:11:10;17.27;;;12.37;;
9128;SDS011;4599;50.906;6.786;2023-11-21T01:15:12;16.57;;;12.20;;
9128;SDS011;4599;50.906;6.786;2023-11-21T01:19:13;20.80;;;13.07;;
9128;SDS011;4599;50.906;6.786;2023-11-21T01:23:15;17.13;;;13.33;;
9128;SDS011;4599;50.906;6.786;2023-11-21T01:27:18;22.33;;;14.00;;
9128;SDS011;4599;50.906;6.786;2023-11-21T01:31:20;22.97;;;13.83;;
9128;SDS011;4599;50.906;6.786;2023-11-21T01:35:22;22.77;;;14.53;;
9128;SDS011;4599;50.906;6.786;2023-11-21T01:39:24;21.70;;;14.07;;
9128;SDS011;4599;50.906;6.786;2023-11-21T01:43:28;21.83;;;13.67;;
9128;SDS011;4599;50.906;6.786;2023-11-21T01:47:30;22.57;;;15.07;;
9128;SDS011;4599;50.906;6.786;2023-11-21T01:51:32;18.53;;;14.30;;
9128;SDS011;4599;50.906;6.786;2023-11-21T01:55:34;21.87;;;15.00;;
9128;SDS011;4599;50.906;6.786;2023-11-21T01:59:38;22.33;;;13.47;;
9128;SDS011;4599;50.906;6.786;2023-11-21T02:03:39;21.00;;;14.47;;
9128;SDS011;4599;50.906;6.786;2023-11-21T02:07:41;20.70;;;12.80;;
9128;SDS011;4599;50.906;6.786;2023-11-21T02:11:43;21.00;;;13.83;;
9128;SDS011;4599;50.906;6.786;2023-11-21T02:15:46;21.00;;;13.20;;
9128;SDS011;4599;50.906;6.786;2023-11-21T02:19:48;18.93;;;12.83;;
9128;SDS011;4599;50.906;6.786;2023-11-21T02:23:51;21.00;;;12.87;;
9128;SDS011;4599;50.906;6.786;2023-11-21T02:27:52;22.20;;;13.93;;
9128;SDS011;4599;50.906;6.786;2023-11-21T02:31:54;20.23;;;13.10;;
9128;SDS011;4599;50.906;6.786;2023-11-21T02:35:57;20.20;;;13.33;;
9128;SDS011;4599;50.906;6.786;2023-11-21T02:40:00;23.13;;;12.90;;
9128;SDS011;4599;50.906;6.786;2023-11-21T02:44:01;22.47;;;13.97;;
9128;SDS011;4599;50.906;6.786;2023-11-21T02:48:03;27.00;;;14.33;;
9128;SDS011;4599;50.906;6.786;2023-11-21T02:52:05;24.70;;;14.83;;
9128;SDS011;4599;50.906;6.786;2023-11-21T02:56:09;25.77;;;14.97;;
9128;SDS011;4599;50.906;6.786;2023-11-21T03:00:12;25.70;;;16.30;;
9128;SDS011;4599;50.906;6.786;2023-11-21T03:04:13;28.50;;;17.07;;
9128;SDS011;4599;50.906;6.786;2023-11-21T03:08:15;29.73;;;17.03;;
9128;SDS011;4599;50.906;6.786;2023-11-21T03:12:18;28.37;;;17.57;;
9128;SDS011;4599;50.906;6.786;2023-11-21T03:16:20;28.20;;;18.47;;
9128;SDS011;4599;50.906;6.786;2023-11-21T03:20:21;29.03;;;17.73;;
9128;SDS011;4599;50.906;6.786;2023-11-21T03:24:23;26.23;;;18.23;;
9128;SDS011;4599;50.906;6.786;2023-11-21T03:28:26;26.57;;;18.20;;
9128;SDS011;4599;50.906;6.786;2023-11-21T03:32:27;28.83;;;17.13;;
9128;SDS011;4599;50.906;6.786;2023-11-21T03:36:29;26.37;;;16.63;;
9128;SDS011;4599;50.906;6.786;2023-11-21T03:40:31;23.27;;;16.00;;
9128;SDS011;4599;50.906;6.786;2023-11-21T03:44:34;25.77;;;15.17;;
9128;SDS011;4599;50.906;6.786;2023-11-21T03:48:35;23.97;;;15.87;;
9128;SDS011;4599;50.906;6.786;2023-11-21T03:52:37;25.43;;;15.20;;
9128;SDS011;4599;50.906;6.786;2023-11-21T03:56:39;28.07;;;15.40;;
9128;SDS011;4599;50.906;6.786;2023-11-21T04:00:41;21.87;;;14.67;;
9128;SDS011;4599;50.906;6.786;2023-11-21T04:04:43;27.50;;;15.47;;
9128;SDS011;4599;50.906;6.786;2023-11-21T04:08:45;29.73;;;15.27;;
9128;SDS011;4599;50.906;6.786;2023-11-21T04:12:46;22.97;;;15.03;;
9128;SDS011;4599;50.906;6.786;2023-11-21T04:16:49;17.90;;;13.93;;
9128;SDS011;4599;50.906;6.786;2023-11-21T04:20:51;21.03;;;14.67;;
9128;SDS011;4599;50.906;6.786;2023-11-21T04:24:53;22.90;;;15.20;;
9128;SDS011;4599;50.906;6.786;2023-11-21T04:28:54;22.60;;;14.80;;
9128;SDS011;4599;50.906;6.786;2023-11-21T04:32:57;24.40;;;15.03;;
9128;SDS011;4599;50.906;6.786;2023-11-21T04:36:59;25.80;;;14.57;;
9128;SDS011;4599;50.906;6.786;2023-11-21T04:41:00;21.27;;;13.93;;
9128;SDS011;4599;50.906;6.786;2023-11-21T04:45:04;27.13;;;14.10;;
9128;SDS011;4599;50.906;6.786;2023-11-21T04:49:08;21.10;;;14.80;;
9128;SDS011;4599;50.906;6.786;2023-11-21T04:53:09;22.53;;;13.87;;
9128;SDS011;4599;50.906;6.786;2023-11-21T04:57:11;24.03;;;13.93;;
9128;SDS011;4599;50.906;6.786;2023-11-21T05:01:12;21.07;;;14.47;;
9128;SDS011;4599;50.906;6.786;2023-11-21T05:05:15;28.57;;;16.67;;
9128;SDS011;4599;50.906;6.786;2023-11-21T05:09:17;24.50;;;16.03;;
9128;SDS011;4599;50.906;6.786;2023-11-21T05:13:18;26.53;;;16.57;;
9128;SDS011;4599;50.906;6.786;2023-11-21T05:17:21;28.97;;;18.07;;
9128;SDS011;4599;50.906;6.786;2023-11-21T05:21:24;29.33;;;19.50;;
9128;SDS011;4599;50.906;6.786;2023-11-21T05:25:26;31.80;;;19.90;;
9128;SDS011;4599;50.906;6.786;2023-11-21T05:29:27;33.00;;;18.60;;
9128;SDS011;4599;50.906;6.786;2023-11-21T05:33:29;32.87;;;19.80;;
9128;SDS011;4599;50.906;6.786;2023-11-21T05:37:31;35.77;;;20.37;;
9128;SDS011;4599;50.906;6.786;2023-11-21T05:41:33;35.13;;;20.70;;
9128;SDS011;4599;50.906;6.786;2023-11-21T05:45:34;32.60;;;18.77;;
9128;SDS011;4599;50.906;6.786;2023-11-21T05:49:36;34.80;;;20.60;;
9128;SDS011;4599;50.906;6.786;2023-11-21T05:53:39;29.83;;;18.43;;
9128;SDS011;4599;50.906;6.786;2023-11-21T05:57:41;33.03;;;20.10;;
9128;SDS011;4599;50.906;6.786;2023-11-21T06:01:43;36.00;;;19.47;;
9128;SDS011;4599;50.906;6.786;2023-11-21T06:05:45;32.40;;;18.67;;
9128;SDS011;4599;50.906;6.786;2023-11-21T06:09:48;33.27;;;18.93;;
9128;SDS011;4599;50.906;6.786;2023-11-21T06:13:49;31.07;;;18.90;;
9128;SDS011;4599;50.906;6.786;2023-11-21T06:17:51;35.93;;;20.13;;
9128;SDS011;4599;50.906;6.786;2023-11-21T06:21:53;35.27;;;20.40;;
9128;SDS011;4599;50.906;6.786;2023-11-21T06:25:57;36.57;;;22.17;;
9128;SDS011;4599;50.906;6.786;2023-11-21T06:29:59;37.47;;;21.80;;
9128;SDS011;4599;50.906;6.786;2023-11-21T06:34:00;38.87;;;22.87;;
9128;SDS011;4599;50.906;6.786;2023-11-21T06:38:02;39.97;;;22.87;;
9128;SDS011;4599;50.906;6.786;2023-11-21T06:42:05;35.63;;;21.87;;
9128;SDS011;4599;50.906;6.786;2023-11-21T06:46:07;36.57;;;21.60;;
9128;SDS011;4599;50.906;6.786;2023-11-21T06:50:09;38.53;;;20.43;;
9128;SDS011;4599;50.906;6.786;2023-11-21T06:54:10;37.03;;;21.23;;
9128;SDS011;4599;50.906;6.786;2023-11-21T06:58:13;35.80;;;20.50;;
9128;SDS011;4599;50.906;6.786;2023-11-21T07:02:15;40.90;;;20.37;;
9128;SDS011;4599;50.906;6.786;2023-11-21T07:06:17;41.57;;;22.00;;
9128;SDS011;4599;50.906;6.786;2023-11-21T07:10:19;35.30;;;21.40;;
9128;SDS011;4599;50.906;6.786;2023-11-21T07:14:22;36.17;;;20.13;;
9128;SDS011;4599;50.906;6.786;2023-11-21T07:18:24;37.13;;;21.37;;
9128;SDS011;4599;50.906;6.786;2023-11-21T07:22:25;35.57;;;20.07;;
9128;SDS011;4599;50.906;6.786;2023-11-21T07:26:27;35.37;;;20.10;;
9128;SDS011;4599;50.906;6.786;2023-11-21T07:30:30;35.23;;;19.70;;
9128;SDS011;4599;50.906;6.786;2023-11-21T07:34:31;34.27;;;20.07;;
9128;SDS011;4599;50.906;6.786;2023-11-21T07:38:33;38.17;;;20.07;;
9128;SDS011;4599;50.906;6.786;2023-11-21T07:42:34;36.83;;;20.83;;
9128;SDS011;4599;50.906;6.786;2023-11-21T07:46:37;38.97;;;21.70;;
9128;SDS011;4599;50.906;6.786;2023-11-21T07:50:39;33.90;;;19.77;;
9128;SDS011;4599;50.906;6.786;2023-11-21T07:54:41;34.70;;;19.70;;
9128;SDS011;4599;50.906;6.786;2023-11-21T07:58:42;33.07;;;19.43;;
9128;SDS011;4599;50.906;6.786;2023-11-21T08:02:46;39.10;;;21.13;;
9128;SDS011;4599;50.906;6.786;2023-11-21T08:06:47;36.07;;;19.90;;
9128;SDS011;4599;50.906;6.786;2023-11-21T08:10:49;38.77;;;20.40;;
9128;SDS011;4599;50.906;6.786;2023-11-21T08:14:51;35.33;;;20.23;;
9128;SDS011;4599;50.906;6.786;2023-11-21T08:18:53;33.00;;;19.67;;
9128;SDS011;4599;50.906;6.786;2023-11-21T08:22:56;35.47;;;20.17;;
9128;SDS011;4599;50.906;6.786;2023-11-21T08:26:58;42.07;;;19.53;;
9128;SDS011;4599;50.906;6.786;2023-11-21T08:31:00;34.07;;;19.23;;
9128;SDS011;4599;50.906;6.786;2023-11-21T08:35:03;35.80;;;20.77;;
9128;SDS011;4599;50.906;6.786;2023-11-21T08:39:05;36.57;;;20.10;;
9128;SDS011;4599;50.906;6.786;2023-11-21T08:43:07;43.93;;;21.47;;
9128;SDS011;4599;50.906;6.786;2023-11-21T08:47:08;38.37;;;20.37;;
9128;SDS011;4599;50.906;6.786;2023-11-21T08:51:12;41.23;;;20.33;;
9128;SDS011;4599;50.906;6.786;2023-11-21T08:55:13;37.47;;;19.93;;
9128;SDS011;4599;50.906;6.786;2023-11-21T08:59:15;41.50;;;19.43;;
9128;SDS011;4599;50.906;6.786;2023-11-21T09:03:17;37.43;;;19.33;;
9128;SDS011;4599;50.906;6.786;2023-11-21T09:07:20;43.47;;;20.87;;
9128;SDS011;4599;50.906;6.786;2023-11-21T09:11:21;36.63;;;19.10;;
9128;SDS011;4599;50.906;6.786;2023-11-21T09:15:23;35.27;;;18.37;;
9128;SDS011;4599;50.906;6.786;2023-11-21T09:19:24;30.37;;;16.83;;
9128;SDS011;4599;50.906;6.786;2023-11-21T09:23:27;33.90;;;16.53;;
9128;SDS011;4599;50.906;6.786;2023-11-21T09:27:29;32.07;;;17.03;;
9128;SDS011;4599;50.906;6.786;2023-11-21T09:31:30;38.40;;;19.40;;
9128;SDS011;4599;50.906;6.786;2023-11-21T09:35:32;38.43;;;18.30;;
9128;SDS011;4599;50.906;6.786;2023-11-21T09:39:36;42.13;;;19.73;;
9128;SDS011;4599;50.906;6.786;2023-11-21T09:43:37;42.63;;;20.80;;
9128;SDS011;4599;50.906;6.786;2023-11-21T09:47:40;45.10;;;21.10;;
9128;SDS011;4599;50.906;6.786;2023-11-21T09:51:42;47.43;;;21.50;;
9128;SDS011;4599;50.906;6.786;2023-11-21T09:55:46;44.50;;;21.53;;
9128;SDS011;4599;50.906;6.786;2023-11-21T09:59:49;39.53;;;20.20;;
9128;SDS011;4599;50.906;6.786;2023-11-21T10:03:53;42.70;;;20.93;;
9128;SDS011;4599;50.906;6.786;2023-11-21T10:07:56;43.83;;;20.77;;
9128;SDS011;4599;50.906;6.786;2023-11-21T10:12:00;39.10;;;19.20;;
9128;SDS011;4599;50.906;6.786;2023-11-21T10:16:02;36.73;;;18.17;;
9128;SDS011;4599;50.906;6.786;2023-11-21T10:20:06;36.00;;;17.37;;
9128;SDS011;4599;50.906;6.786;2023-11-21T10:24:09;33.43;;;16.87;;
9128;SDS011;4599;50.906;6.786;2023-11-21T10:28:12;31.73;;;17.17;;
9128;SDS011;4599;50.906;6.786;2023-11-21T10:32:14;35.50;;;16.90;;
9128;SDS011;4599;50.906;6.786;2023-11-21T10:36:19;32.93;;;16.73;;
9128;SDS011;4599;50.906;6.786;2023-11-21T10:40:27;34.87;;;17.60;;
9128;SDS011;4599;50.906;6.786;2023-11-21T10:44:30;38.93;;;17.20;;
9128;SDS011;4599;50.906;6.786;2023-11-21T10:48:32;39.07;;;17.87;;
9128;SDS011;4599;50.906;6.786;2023-11-21T10:52:33;35.33;;;17.70;;
9128;SDS011;4599;50.906;6.786;2023-11-21T10:56:35;35.90;;;16.80;;
9128;SDS011;4599;50.906;6.786;2023-11-21T11:00:39;32.27;;;16.43;;
9128;SDS011;4599;50.906;6.786;2023-11-21T11:04:41;33.17;;;17.23;;
9128;SDS011;4599;50.906;6.786;2023-11-21T11:08:43;38.00;;;16.70;;
9128;SDS011;4599;50.906;6.786;2023-11-21T11:12:45;30.10;;;16.40;;
9128;SDS011;4599;50.906;6.786;2023-11-21T11:16:50;32.03;;;16.00;;
9128;SDS011;4599;50.906;6.786;2023-11-21T11:20:52;32.73;;;16.00;;
9128;SDS011;4599;50.906;6.786;2023-11-21T11:25:00;31.17;;;15.87;;
9128;SDS011;4599;50.906;6.786;2023-11-21T11:29:14;31.30;;;15.83;;
9128;SDS011;4599;50.906;6.786;2023-11-21T11:33:28;29.43;;;15.60;;
9128;SDS011;4599;50.906;6.786;2023-11-21T11:37:38;29.83;;;14.87;;
9128;SDS011;4599;50.906;6.786;2023-11-21T11:41:39;29.30;;;15.63;;
9128;SDS011;4599;50.906;6.786;2023-11-21T11:45:44;31.27;;;16.57;;
9128;SDS011;4599;50.906;6.786;2023-11-21T11:49:57;24.97;;;14.87;;
9128;SDS011;4599;50.906;6.786;2023-11-21T11:54:01;25.60;;;14.53;;
9128;SDS011;4599;50.906;6.786;2023-11-21T11:58:04;29.73;;;14.53;;
9128;SDS011;4599;50.906;6.786;2023-11-21T12:02:08;25.43;;;13.70;;
9128;SDS011;4599;50.906;6.786;2023-11-21T12:06:11;24.00;;;12.80;;
9128;SDS011;4599;50.906;6.786;2023-11-21T12:10:16;21.40;;;12.27;;
9128;SDS011;4599;50.906;6.786;2023-11-21T12:14:18;24.13;;;11.73;;
9128;SDS011;4599;50.906;6.786;2023-11-21T12:18:20;22.20;;;11.57;;
9128;SDS011;4599;50.906;6.786;2023-11-21T12:22:23;21.30;;;12.17;;
9128;SDS011;4599;50.906;6.786;2023-11-21T12:26:25;22.90;;;11.37;;
9128;SDS011;4599;50.906;6.786;2023-11-21T12:30:27;26.57;;;12.00;;
9128;SDS011;4599;50.906;6.786;2023-11-21T12:34:30;24.40;;;12.03;;
9128;SDS011;4599;50.906;6.786;2023-11-21T12:38:34;28.47;;;13.97;;
9128;SDS011;4599;50.906;6.786;2023-11-21T12:42:36;29.40;;;13.80;;
9128;SDS011;4599;50.906;6.786;2023-11-21T12:46:40;27.40;;;13.73;;
9128;SDS011;4599;50.906;6.786;2023-11-21T12:50:43;23.87;;;13.27;;
9128;SDS011;4599;50.906;6.786;2023-11-21T12:54:46;27.23;;;12.80;;
9128;SDS011;4599;50.906;6.786;2023-11-21T12:58:47;20.90;;;12.60;;
9128;SDS011;4599;50.906;6.786;2023-11-21T13:02:51;23.57;;;12.00;;
9128;SDS011;4599;50.906;6.786;2023-11-21T13:06:53;28.63;;;13.50;;
9128;SDS011;4599;50.906;6.786;2023-11-21T13:10:56;24.73;;;12.37;;
9128;SDS011;4599;50.906;6.786;2023-11-21T13:15:03;24.37;;;11.97;;
9128;SDS011;4599;50.906;6.786;2023-11-21T13:19:05;25.30;;;11.97;;
9128;SDS011;4599;50.906;6.786;2023-11-21T13:23:07;32.00;;;12.47;;
9128;SDS011;4599;50.906;6.786;2023-11-21T13:27:10;24.20;;;11.37;;
9128;SDS011;4599;50.906;6.786;2023-11-21T13:31:12;24.83;;;11.40;;
9128;SDS011;4599;50.906;6.786;2023-11-21T13:35:14;24.53;;;11.50;;
9128;SDS011;4599;50.906;6.786;2023-11-21T13:39:15;23.67;;;11.03;;
9128;SDS011;4599;50.906;6.786;2023-11-21T13:43:19;21.37;;;10.57;;
9128;SDS011;4599;50.906;6.786;2023-11-21T13:47:22;21.40;;;10.47;;
9128;SDS011;4599;50.906;6.786;2023-11-21T13:51:23;19.90;;;9.97;;
9128;SDS011;4599;50.906;6.786;2023-11-21T13:55:25;24.60;;;10.23;;
9128;SDS011;4599;50.906;6.786;2023-11-21T13:59:28;23.00;;;10.27;;
9128;SDS011;4599;50.906;6.786;2023-11-21T14:03:29;20.07;;;9.50;;
9128;SDS011;4599;50.906;6.786;2023-11-21T14:07:31;20.80;;;10.30;;
9128;SDS011;4599;50.906;6.786;2023-11-21T14:11:33;18.23;;;10.50;;
9128;SDS011;4599;50.906;6.786;2023-11-21T14:15:45;22.40;;;10.33;;
9128;SDS011;4599;50.906;6.786;2023-11-21T14:19:46;25.07;;;10.43;;
9128;SDS011;4599;50.906;6.786;2023-11-21T14:23:48;18.17;;;9.23;;
9128;SDS011;4599;50.906;6.786;2023-11-21T14:27:50;20.27;;;10.10;;
9128;SDS011;4599;50.906;6.786;2023-11-21T14:31:52;21.50;;;9.40;;
9128;SDS011;4599;50.906;6.786;2023-11-21T14:35:54;19.83;;;10.40;;
9128;SDS011;4599;50.906;6.786;2023-11-21T14:39:55;21.57;;;10.30;;
9128;SDS011;4599;50.906;6.786;2023-11-21T14:43:57;19.40;;;10.77;;
9128;SDS011;4599;50.906;6.786;2023-11-21T14:48:00;21.20;;;10.47;;
9128;SDS011;4599;50.906;6.786;2023-11-21T14:52:02;23.30;;;10.13;;
9128;SDS011;4599;50.906;6.786;2023-11-21T14:56:05;24.60;;;11.20;;
9128;SDS011;4599;50.906;6.786;2023-11-21T15:00:08;25.20;;;11.10;;
9128;SDS011;4599;50.906;6.786;2023-11-21T15:04:12;20.93;;;9.77;;
9128;SDS011;4599;50.906;6.786;2023-11-21T15:08:13;21.07;;;10.67;;
9128;SDS011;4599;50.906;6.786;2023-11-21T15:12:15;25.40;;;11.17;;
9128;SDS011;4599;50.906;6.786;2023-11-21T15:16:17;24.97;;;10.97;;
9128;SDS011;4599;50.906;6.786;2023-11-21T15:20:20;23.57;;;10.47;;
9128;SDS011;4599;50.906;6.786;2023-11-21T15:24:21;24.37;;;12.07;;
9128;SDS011;4599;50.906;6.786;2023-11-21T15:28:23;21.83;;;11.87;;
9128;SDS011;4599;50.906;6.786;2023-11-21T15:32:25;23.30;;;11.00;;
9128;SDS011;4599;50.906;6.786;2023-11-21T15:36:28;24.13;;;11.30;;
9128;SDS011;4599;50.906;6.786;2023-11-21T15:40:29;25.47;;;12.50;;
9128;SDS011;4599;50.906;6.786;2023-11-21T15:44:31;27.13;;;13.70;;
9128;SDS011;4599;50.906;6.786;2023-11-21T15:48:32;31.37;;;14.27;;
9128;SDS011;4599;50.906;6.786;2023-11-21T15:52:36;30.53;;;15.23;;
9128;SDS011;4599;50.906;6.786;2023-11-21T15:56:56;30.20;;;15.53;;
9128;SDS011;4599;50.906;6.786;2023-11-21T16:00:58;31.10;;;15.60;;
9128;SDS011;4599;50.906;6.786;2023-11-21T16:04:59;40.53;;;17.37;;
9128;SDS011;4599;50.906;6.786;2023-11-21T16:09:02;29.73;;;16.60;;
9128;SDS011;4599;50.906;6.786;2023-11-21T16:13:04;29.97;;;15.77;;
9128;SDS011;4599;50.906;6.786;2023-11-21T16:17:05;33.40;;;17.27;;
9128;SDS011;4599;50.906;6.786;2023-11-21T16:21:10;29.30;;;16.83;;
9128;SDS011;4599;50.906;6.786;2023-11-21T16:25:15;32.23;;;17.10;;
9128;SDS011;4599;50.906;6.786;2023-11-21T16:29:16;28.50;;;14.57;;
9128;SDS011;4599;50.906;6.786;2023-11-21T16:33:18;20.60;;;13.30;;
9128;SDS011;4599;50.906;6.786;2023-11-21T16:37:20;23.73;;;13.57;;
9128;SDS011;4599;50.906;6.786;2023-11-21T16:41:23;17.83;;;12.70;;
9128;SDS011;4599;50.906;6.786;2023-11-21T16:45:24;18.27;;;13.20;;
9128;SDS011;4599;50.906;6.786;2023-11-21T16:49:26;21.10;;;13.63;;
9128;SDS011;4599;50.906;6.786;2023-11-21T16:53:27;22.80;;;14.00;;
9128;SDS011;4599;50.906;6.786;2023-11-21T16:57:30;20.87;;;13.43;;
9128;SDS011;4599;50.906;6.786;2023-11-21T17:01:35;20.90;;;13.77;;
9128;SDS011;4599;50.906;6.786;2023-11-21T17:05:37;20.47;;;13.67;;
9128;SDS011;4599;50.906;6.786;2023-11-21T17:09:38;18.30;;;12.60;;
9128;SDS011;4599;50.906;6.786;2023-11-21T17:13:41;15.60;;;11.93;;
9128;SDS011;4599;50.906;6.786;2023-11-21T17:17:44;17.77;;;11.53;;
9128;SDS011;4599;50.906;6.786;2023-11-21T17:21:46;14.50;;;11.67;;
9128;SDS011;4599;50.906;6.786;2023-11-21T17:25:47;15.27;;;9.57;;
9128;SDS011;4599;50.906;6.786;2023-11-21T17:29:50;14.27;;;9.60;;
9128;SDS011;4599;50.906;6.786;2023-11-21T17:33:55;14.20;;;9.53;;
9128;SDS011;4599;50.906;6.786;2023-11-21T17:37:56;11.17;;;8.23;;
9128;SDS011;4599;50.906;6.786;2023-11-21T17:41:58;10.00;;;7.70;;
9128;SDS011;4599;50.906;6.786;2023-11-21T17:46:01;11.27;;;8.07;;
9128;SDS011;4599;50.906;6.786;2023-11-21T17:50:02;13.30;;;9.37;;
9128;SDS011;4599;50.906;6.786;2023-11-21T17:54:04;12.80;;;9.50;;
9128;SDS011;4599;50.906;6.786;2023-11-21T17:58:06;13.87;;;9.07;;
9128;SDS011;4599;50.906;6.786;2023-11-21T18:02:09;11.60;;;8.67;;
9128;SDS011;4599;50.906;6.786;2023-11-21T18:06:11;10.90;;;8.57;;
9128;SDS011;4599;50.906;6.786;2023-11-21T18:10:12;10.53;;;8.73;;
9128;SDS011;4599;50.906;6.786;2023-11-21T18:14:14;10.70;;;8.83;;
9128;SDS011;4599;50.906;6.786;2023-11-21T18:18:17;15.00;;;11.23;;
9128;SDS011;4599;50.906;6.786;2023-11-21T18:22:18;18.47;;;12.27;;
9128;SDS011;4599;50.906;6.786;2023-11-21T18:26:20;16.97;;;11.47;;
9128;SDS011;4599;50.906;6.786;2023-11-21T18:30:21;13.63;;;10.40;;
9128;SDS011;4599;50.906;6.786;2023-11-21T18:34:24;15.70;;;10.80;;
9128;SDS011;4599;50.906;6.786;2023-11-21T18:38:26;14.97;;;11.17;;
9128;SDS011;4599;50.906;6.786;2023-11-21T18:42:27;13.97;;;11.03;;
9128;SDS011;4599;50.906;6.786;2023-11-21T18:46:29;13.47;;;10.30;;
9128;SDS011;4599;50.906;6.786;2023-11-21T18:50:38;11.80;;;9.80;;
9128;SDS011;4599;50.906;6.786;2023-11-21T18:54:40;10.10;;;9.10;;
9128;SDS011;4599;50.906;6.786;2023-11-21T18:58:42;9.90;;;7.83;;
9128;SDS011;4599;50.906;6.786;2023-11-21T19:02:43;8.80;;;6.80;;
9128;SDS011;4599;50.906;6.786;2023-11-21T19:06:46;7.30;;;6.60;;
9128;SDS011;4599;50.906;6.786;2023-11-21T19:10:48;7.83;;;6.37;;
9128;SDS011;4599;50.906;6.786;2023-11-21T19:14:49;7.07;;;5.43;;
9128;SDS011;4599;50.906;6.786;2023-11-21T19:18:51;11.10;;;5.00;;
9128;SDS011;4599;50.906;6.786;2023-11-21T19:22:54;4.63;;;4.17;;
9128;SDS011;4599;50.906;6.786;2023-11-21T19:26:55;5.13;;;4.50;;
9128;SDS011;4599;50.906;6.786;2023-11-21T19:30:57;6.37;;;4.40;;
9128;SDS011;4599;50.906;6.786;2023-11-21T19:34:58;4.67;;;3.77;;
9128;SDS011;4599;50.906;6.786;2023-11-21T19:39:01;4.67;;;4.17;;
9128;SDS011;4599;50.906;6.786;2023-11-21T19:43:03;4.43;;;4.03;;
9128;SDS011;4599;50.906;6.786;2023-11-21T19:47:04;4.47;;;3.93;;
9128;SDS011;4599;50.906;6.786;2023-11-21T19:51:06;3.97;;;3.57;;
9128;SDS011;4599;50.906;6.786;2023-11-21T19:55:09;3.80;;;3.40;;
9128;SDS011;4599;50.906;6.786;2023-11-21T19:59:10;5.73;;;4.40;;
9128;SDS011;4599;50.906;6.786;2023-11-21T20:03:13;4.87;;;4.47;;
9128;SDS011;4599;50.906;6.786;2023-11-21T20:07:14;5.43;;;4.20;;
9128;SDS011;4599;50.906;6.786;2023-11-21T20:11:18;5.13;;;4.63;;
9128;SDS011;4599;50.906;6.786;2023-11-21T20:15:20;5.00;;;4.40;;
9128;SDS011;4599;50.906;6.786;2023-11-21T20:19:22;6.10;;;4.90;;
9128;SDS011;4599;50.906;6.786;2023-11-21T20:23:23;5.30;;;4.57;;
9128;SDS011;4599;50.906;6.786;2023-11-21T20:27:26;7.10;;;5.03;;
9128;SDS011;4599;50.906;6.786;2023-11-21T20:31:28;5.57;;;5.03;;
9128;SDS011;4599;50.906;6.786;2023-11-21T20:35:30;8.47;;;5.27;;
9128;SDS011;4599;50.906;6.786;2023-11-21T20:39:31;7.60;;;5.37;;
9128;SDS011;4599;50.906;6.786;2023-11-21T20:43:34;5.53;;;4.80;;
9128;SDS011;4599;50.906;6.786;2023-11-21T20:47:35;7.13;;;5.10;;
9128;SDS011;4599;50.906;6.786;2023-11-21T20:51:37;6.03;;;5.20;;
9128;SDS011;4599;50.906;6.786;2023-11-21T20:55:39;6.00;;;5.13;;
9128;SDS011;4599;50.906;6.786;2023-11-21T20:59:42;7.53;;;5.30;;
9128;SDS011;4599;50.906;6.786;2023-11-21T21:03:43;7.13;;;5.70;;
9128;SDS011;4599;50.906;6.786;2023-11-21T21:07:45;6.87;;;5.17;;
9128;SDS011;4599;50.906;6.786;2023-11-21T21:11:46;7.00;;;5.47;;
9128;SDS011;4599;50.906;6.786;2023-11-21T21:15:49;7.83;;;5.27;;
9128;SDS011;4599;50.906;6.786;2023-11-21T21:19:51;8.80;;;5.93;;
9128;SDS011;4599;50.906;6.786;2023-11-21T21:23:52;6.63;;;5.83;;
9128;SDS011;4599;50.906;6.786;2023-11-21T21:27:54;7.00;;;6.10;;
9128;SDS011;4599;50.906;6.786;2023-11-21T21:31:56;7.40;;;6.27;;
9128;SDS011;4599;50.906;6.786;2023-11-21T21:35:58;6.43;;;5.73;;
9128;SDS011;4599;50.906;6.786;2023-11-21T21:40:01;7.30;;;5.97;;
9128;SDS011;4599;50.906;6.786;2023-11-21T21:44:02;7.90;;;5.80;;
9128;SDS011;4599;50.906;6.786;2023-11-21T21:48:06;7.90;;;5.90;;
9128;SDS011;4599;50.906;6.786;2023-11-21T21:52:07;8.47;;;6.60;;
9128;SDS011;4599;50.906;6.786;2023-11-21T21:56:09;8.10;;;6.10;;
9128;SDS011;4599;50.906;6.786;2023-11-21T22:00:11;10.13;;;6.57;;
9128;SDS011;4599;50.906;6.786;2023-11-21T22:04:14;11.03;;;7.33;;
9128;SDS011;4599;50.906;6.786;2023-11-21T22:08:16;8.83;;;7.10;;
9128;SDS011;4599;50.906;6.786;2023-11-21T22:12:18;9.43;;;7.97;;
9128;SDS011;4599;50.906;6.786;2023-11-21T22:16:20;10.83;;;7.40;;
9128;SDS011;4599;50.906;6.786;2023-11-21T22:20:23;11.50;;;7.70;;
9128;SDS011;4599;50.906;6.786;2023-11-21T22:24:26;7.90;;;6.87;;
9128;SDS011;4599;50.906;6.786;2023-11-21T22:28:27;9.03;;;6.90;;
9128;SDS011;4599;50.906;6.786;2023-11-21T22:32:30;10.10;;;7.60;;
9128;SDS011;4599;50.906;6.786;2023-11-21T22:36:33;9.63;;;7.23;;
9128;SDS011;4599;50.906;6.786;2023-11-21T22:40:34;10.37;;;7.40;;
9128;SDS011;4599;50.906;6.786;2023-11-21T22:44:36;8.63;;;6.57;;
9128;SDS011;4599;50.906;6.786;2023-11-21T22:48:37;8.20;;;6.90;;
9128;SDS011;4599;50.906;6.786;2023-11-21T22:52:40;9.30;;;7.57;;
9128;SDS011;4599;50.906;6.786;2023-11-21T22:56:42;11.30;;;8.23;;
9128;SDS011;4599;50.906;6.786;2023-11-21T23:00:43;9.63;;;7.83;;
9128;SDS011;4599;50.906;6.786;2023-11-21T23:04:45;11.23;;;8.33;;
9128;SDS011;4599;50.906;6.786;2023-11-21T23:08:48;12.67;;;9.00;;
9128;SDS011;4599;50.906;6.786;2023-11-21T23:12:49;14.90;;;9.63;;
9128;SDS011;4599;50.906;6.786;2023-11-21T23:16:51;16.07;;;10.00;;
9128;SDS011;4599;50.906;6.786;2023-11-21T23:20:53;10.93;;;8.53;;
9128;SDS011;4599;50.906;6.786;2023-11-21T23:24:56;10.97;;;8.67;;
9128;SDS011;4599;50.906;6.786;2023-11-21T23:28:57;11.67;;;8.70;;
9128;SDS011;4599;50.906;6.786;2023-11-21T23:32:59;13.27;;;9.00;;
9128;SDS011;4599;50.906;6.786;2023-11-21T23:37:00;9.97;;;8.77;;
9128;SDS011;4599;50.906;6.786;2023-11-21T23:41:03;12.53;;;9.20;;
9128;SDS011;4599;50.906;6.786;2023-11-21T23:45:05;11.50;;;8.43;;
9128;SDS011;4599;50.906;6.786;2023-11-21T23:49:07;10.50;;;8.63;;
9128;SDS011;4599;50.906;6.786;2023-11-21T23:53:09;12.07;;;8.87;;
9128;SDS011;4599;50.906;6.786;2023-11-21T23:57:12;9.93;;;8.40;;
